Time;durP1;ratioP1;P1;durP2;ratioP2;P2;SDS_P1;SDS_P2;PMS_P1;PMS_P2;Temp;Humidity;BMP_temperature;BMP_pressure;BME280_temperature;BME280_humidity;BME280_pressure;Samples;Min_cycle;Max_cycle;Signal;HPM_P1;HPM_P2
2022/04/23 00:01:42;;;;;;;16.97;12.20;;;;;;;;;;5042196;28;20186;-75
2022/04/23 00:04:09;;;;;;;18.13;12.50;;;;;;;;;;5049030;28;20066;-75
2022/04/23 00:06:35;;;;;;;15.83;11.87;;;;;;;;;;5049432;28;20037;-75
2022/04/23 00:09:01;;;;;;;22.13;13.00;;;;;;;;;;5048961;28;20032;-75
2022/04/23 00:11:27;;;;;;;18.80;12.10;;;;;;;;;;5064281;28;20045;-75
2022/04/23 00:13:52;;;;;;;15.80;11.90;;;;;;;;;;5048655;28;20114;-75
2022/04/23 00:16:19;;;;;;;13.67;10.73;;;;;;;;;;5048795;28;20059;-75
2022/04/23 00:18:45;;;;;;;17.83;11.70;;;;;;;;;;5048904;28;20029;-75
2022/04/23 00:21:11;;;;;;;17.47;12.60;;;;;;;;;;5048861;28;20028;-75
2022/04/23 00:23:36;;;;;;;18.47;12.70;;;;;;;;;;5064211;28;20386;-76
2022/04/23 00:26:02;;;;;;;17.77;12.67;;;;;;;;;;5048959;28;20057;-75
2022/04/23 00:28:28;;;;;;;22.67;13.67;;;;;;;;;;5063589;28;20196;-75
2022/04/23 00:30:53;;;;;;;16.23;11.93;;;;;;;;;;5048785;28;20111;-75
2022/04/23 00:33:20;;;;;;;18.27;11.97;;;;;;;;;;5048684;28;20396;-75
2022/04/23 00:35:45;;;;;;;16.80;12.03;;;;;;;;;;5048720;28;20033;-75
2022/04/23 00:38:11;;;;;;;18.87;12.50;;;;;;;;;;5048619;28;20032;-75
2022/04/23 00:40:39;;;;;;;18.43;12.50;;;;;;;;;;5048856;28;20033;-75
2022/04/23 00:43:10;;;;;;;16.63;11.40;;;;;;;;;;5047675;28;20036;-75
2022/04/23 00:45:37;;;;;;;12.67;10.57;;;;;;;;;;5049002;28;20028;-75
2022/04/23 00:48:03;;;;;;;16.83;12.17;;;;;;;;;;5047939;28;20036;-76
2022/04/23 00:50:29;;;;;;;20.07;11.77;;;;;;;;;;5067277;28;20028;-75
2022/04/23 00:53:02;;;;;;;18.60;11.23;;;;;;;;;;5049637;28;20067;-75
2022/04/23 00:55:32;;;;;;;16.33;10.60;;;;;;;;;;5047842;28;20638;-76
2022/04/23 00:57:59;;;;;;;14.17;9.80;;;;;;;;;;5048381;28;20111;-75
2022/04/23 01:00:25;;;;;;;16.10;10.10;;;;;;;;;;5048606;28;20025;-75
2022/04/23 01:02:54;;;;;;;16.20;11.03;;;;;;;;;;5047326;28;20147;-76
2022/04/23 01:05:23;;;;;;;16.77;9.87;;;;;;;;;;5049251;28;20021;-76
2022/04/23 01:07:51;;;;;;;17.83;10.40;;;;;;;;;;5048990;28;20029;-75
2022/04/23 01:10:17;;;;;;;15.80;8.83;;;;;;;;;;5047257;28;20028;-75
2022/04/23 01:12:45;;;;;;;14.00;8.50;;;;;;;;;;5046996;28;20056;-75
2022/04/23 01:15:13;;;;;;;11.80;8.20;;;;;;;;;;5046693;28;20509;-75
2022/04/23 01:17:42;;;;;;;14.03;9.13;;;;;;;;;;5046988;28;20064;-76
2022/04/23 01:20:10;;;;;;;13.27;9.00;;;;;;;;;;5048337;28;20477;-76
2022/04/23 01:22:37;;;;;;;14.30;8.40;;;;;;;;;;5044052;28;20029;-76
2022/04/23 01:25:12;;;;;;;16.63;9.23;;;;;;;;;;5026891;28;20082;-75
2022/04/23 01:27:38;;;;;;;12.63;8.57;;;;;;;;;;5026956;28;20057;-76
2022/04/23 01:30:06;;;;;;;13.67;9.33;;;;;;;;;;5026785;28;20462;-76
2022/04/23 01:32:32;;;;;;;19.53;9.40;;;;;;;;;;5041957;28;20122;-75
2022/04/23 01:34:58;;;;;;;12.43;9.07;;;;;;;;;;5048494;28;20065;-75
2022/04/23 01:37:23;;;;;;;17.97;9.83;;;;;;;;;;5046836;28;20056;-75
2022/04/23 01:39:51;;;;;;;16.50;9.87;;;;;;;;;;5047597;28;20417;-75
2022/04/23 01:42:19;;;;;;;14.53;9.27;;;;;;;;;;5050654;28;20060;-74
2022/04/23 01:44:49;;;;;;;14.37;9.87;;;;;;;;;;5051850;28;20033;-76
2022/04/23 01:47:15;;;;;;;13.03;8.70;;;;;;;;;;5049823;28;20051;-75
2022/04/23 01:49:42;;;;;;;15.70;9.00;;;;;;;;;;5051457;28;20033;-75
2022/04/23 01:52:08;;;;;;;15.70;9.77;;;;;;;;;;5066557;28;20029;-75
2022/04/23 01:54:34;;;;;;;21.20;11.13;;;;;;;;;;5051169;28;20493;-75
2022/04/23 01:57:00;;;;;;;16.20;10.17;;;;;;;;;;5066376;28;20360;-75
2022/04/23 01:59:27;;;;;;;18.40;10.73;;;;;;;;;;5051348;28;20052;-75
2022/04/23 02:01:53;;;;;;;17.30;10.47;;;;;;;;;;5061229;28;20101;-75
2022/04/23 02:04:19;;;;;;;19.67;11.37;;;;;;;;;;5046287;28;20032;-76
2022/04/23 02:06:45;;;;;;;15.17;10.17;;;;;;;;;;5029926;28;20029;-74
2022/04/23 02:09:11;;;;;;;15.97;10.17;;;;;;;;;;5031353;28;20080;-74
2022/04/23 02:11:40;;;;;;;17.13;10.60;;;;;;;;;;5046519;28;20049;-75
2022/04/23 02:14:06;;;;;;;15.27;10.70;;;;;;;;;;5046461;28;20470;-75
2022/04/23 02:16:32;;;;;;;20.10;9.83;;;;;;;;;;5032137;28;20044;-75
2022/04/23 02:18:59;;;;;;;16.87;9.83;;;;;;;;;;5050829;28;20028;-75
2022/04/23 02:21:27;;;;;;;15.97;10.97;;;;;;;;;;5039927;28;20041;-75
2022/04/23 02:23:54;;;;;;;17.17;10.33;;;;;;;;;;5031079;28;20029;-75
2022/04/23 02:26:22;;;;;;;16.87;11.17;;;;;;;;;;5029826;28;20123;-75
2022/04/23 02:28:49;;;;;;;16.57;10.47;;;;;;;;;;5031303;28;20048;-75
2022/04/23 02:31:15;;;;;;;16.47;10.27;;;;;;;;;;5029518;28;20032;-75
2022/04/23 02:33:40;;;;;;;18.67;10.57;;;;;;;;;;5047666;28;20041;-76
2022/04/23 02:36:07;;;;;;;19.43;10.50;;;;;;;;;;5065812;28;20029;-76
2022/04/23 02:38:34;;;;;;;17.80;11.13;;;;;;;;;;5069026;28;20028;-75
2022/04/23 02:40:59;;;;;;;17.73;11.07;;;;;;;;;;5072251;28;20028;-75
2022/04/23 02:43:25;;;;;;;15.77;11.37;;;;;;;;;;5054925;28;20178;-76
2022/04/23 02:45:52;;;;;;;16.50;10.70;;;;;;;;;;5054497;28;20036;-75
2022/04/23 02:48:18;;;;;;;15.83;10.70;;;;;;;;;;5053552;28;20036;-76
2022/04/23 02:50:43;;;;;;;18.40;10.43;;;;;;;;;;5052434;28;20388;-75
2022/04/23 02:53:09;;;;;;;19.13;11.90;;;;;;;;;;5052604;28;20029;-76
2022/04/23 02:55:37;;;;;;;18.93;11.07;;;;;;;;;;5034589;28;20032;-76
2022/04/23 02:58:07;;;;;;;17.53;10.70;;;;;;;;;;5049651;28;20115;-75
2022/04/23 03:00:33;;;;;;;20.80;11.43;;;;;;;;;;5051500;28;20089;-75
2022/04/23 03:02:59;;;;;;;20.50;11.63;;;;;;;;;;5053175;28;20195;-75
2022/04/23 03:05:26;;;;;;;19.17;11.30;;;;;;;;;;5054486;28;20150;-76
2022/04/23 03:07:53;;;;;;;18.63;11.60;;;;;;;;;;5068803;28;20528;-74
2022/04/23 03:10:19;;;;;;;21.37;12.30;;;;;;;;;;5053110;28;20039;-75
2022/04/23 03:12:45;;;;;;;18.63;11.03;;;;;;;;;;5068596;28;20071;-74
2022/04/23 03:15:16;;;;;;;17.57;12.17;;;;;;;;;;5069640;28;20104;-75
2022/04/23 03:17:42;;;;;;;20.93;12.33;;;;;;;;;;5061204;28;20025;-75
2022/04/23 03:20:09;;;;;;;18.77;11.60;;;;;;;;;;5030600;28;20036;-74
2022/04/23 03:22:39;;;;;;;22.33;12.33;;;;;;;;;;5051384;28;20029;-74
2022/04/23 03:25:06;;;;;;;21.33;12.30;;;;;;;;;;5051006;28;20516;-77
2022/04/23 03:27:32;;;;;;;19.37;12.53;;;;;;;;;;5050197;28;20028;-76
2022/04/23 03:30:01;;;;;;;23.23;11.23;;;;;;;;;;5051788;28;20040;-74
2022/04/23 03:32:28;;;;;;;21.40;12.10;;;;;;;;;;5046395;28;20445;-75
2022/04/23 03:34:53;;;;;;;17.53;11.37;;;;;;;;;;5030058;28;20079;-73
2022/04/23 03:37:19;;;;;;;22.17;12.17;;;;;;;;;;5044897;28;20525;-75
2022/04/23 03:39:44;;;;;;;19.27;11.83;;;;;;;;;;5045496;28;20036;-75
2022/04/23 03:42:13;;;;;;;22.03;11.80;;;;;;;;;;5030770;28;20136;-76
2022/04/23 03:44:38;;;;;;;22.30;12.73;;;;;;;;;;5051250;28;20032;-75
2022/04/23 03:47:05;;;;;;;21.33;13.07;;;;;;;;;;5036661;28;20029;-75
2022/04/23 03:49:31;;;;;;;23.90;13.27;;;;;;;;;;5053082;28;20116;-76
2022/04/23 03:51:57;;;;;;;22.67;12.33;;;;;;;;;;5066911;28;20404;-75
2022/04/23 03:54:23;;;;;;;22.07;12.00;;;;;;;;;;5065878;28;20029;-75
2022/04/23 03:56:48;;;;;;;19.87;11.20;;;;;;;;;;5049277;28;20043;-76
2022/04/23 03:59:20;;;;;;;19.03;11.77;;;;;;;;;;5049146;28;20040;-76
2022/04/23 04:01:47;;;;;;;22.13;13.25;;;;;;;;;;5049028;28;20096;-75
2022/04/23 04:04:14;;;;;;;22.67;13.20;;;;;;;;;;5033738;28;20239;-75
2022/04/23 04:06:39;;;;;;;23.47;13.20;;;;;;;;;;5044440;28;20434;-75
2022/04/23 04:09:05;;;;;;;20.47;12.03;;;;;;;;;;5044246;28;20056;-75
2022/04/23 04:12:01;;;;;;;22.97;11.93;;;;;;;;;;5043480;28;20049;-75
2022/04/23 04:14:16;;;;;;;21.07;11.30;;;;;;;;;;5028916;28;20458;-75
2022/04/23 04:16:42;;;;;;;20.07;12.47;;;;;;;;;;5044223;28;20056;-75
2022/04/23 04:19:08;;;;;;;19.53;11.80;;;;;;;;;;5028493;28;20018;-76
2022/04/23 04:21:33;;;;;;;20.10;12.03;;;;;;;;;;5039899;28;20021;-75
2022/04/23 04:24:00;;;;;;;17.87;11.80;;;;;;;;;;5047543;28;20064;-74
2022/04/23 04:26:25;;;;;;;22.10;12.07;;;;;;;;;;5048867;28;20071;-75
2022/04/23 04:28:51;;;;;;;18.63;12.10;;;;;;;;;;5048983;28;20060;-76
2022/04/23 04:34:00;;;;;;;22.90;12.80;;;;;;;;;;5048846;28;20338;-76
2022/04/23 04:36:26;;;;;;;22.27;12.57;;;;;;;;;;5046959;28;20021;-75
2022/04/23 04:38:51;;;;;;;23.17;12.80;;;;;;;;;;5048743;28;20467;-75
2022/04/23 04:41:17;;;;;;;21.37;11.57;;;;;;;;;;5048594;28;20029;-75
2022/04/23 04:43:42;;;;;;;22.40;13.00;;;;;;;;;;5048587;28;20124;-74
2022/04/23 04:46:08;;;;;;;21.07;12.13;;;;;;;;;;5048298;28;20067;-75
2022/04/23 04:48:34;;;;;;;17.77;11.63;;;;;;;;;;5046943;28;20021;-75
2022/04/23 04:50:59;;;;;;;18.67;12.00;;;;;;;;;;5063983;28;20035;-75
2022/04/23 04:53:25;;;;;;;22.13;11.73;;;;;;;;;;5048309;28;20029;-75
2022/04/23 04:55:50;;;;;;;19.80;12.23;;;;;;;;;;5048559;28;20029;-75
2022/04/23 04:58:16;;;;;;;29.80;13.23;;;;;;;;;;5048561;28;20025;-74
2022/04/23 05:00:41;;;;;;;22.63;12.87;;;;;;;;;;5049070;28;20029;-76
2022/04/23 05:03:07;;;;;;;19.37;11.83;;;;;;;;;;5048564;28;20040;-74
2022/04/23 05:05:34;;;;;;;21.20;12.03;;;;;;;;;;5063548;28;20423;-75
2022/04/23 05:08:00;;;;;;;17.23;11.93;;;;;;;;;;5048843;28;20021;-75
2022/04/23 05:10:25;;;;;;;22.07;12.57;;;;;;;;;;5048124;28;20024;-77
2022/04/23 05:12:50;;;;;;;20.80;12.03;;;;;;;;;;5046799;28;20148;-75
2022/04/23 05:15:16;;;;;;;19.47;12.17;;;;;;;;;;5049911;28;20465;-75
2022/04/23 05:17:42;;;;;;;18.90;12.10;;;;;;;;;;5050613;28;20021;-75
2022/04/23 05:20:08;;;;;;;22.30;13.10;;;;;;;;;;5050596;28;20021;-75
2022/04/23 05:22:33;;;;;;;22.93;12.77;;;;;;;;;;5032515;28;20571;-76
2022/04/23 05:24:59;;;;;;;17.00;11.73;;;;;;;;;;5030746;28;20116;-76
2022/04/23 05:27:27;;;;;;;21.13;12.73;;;;;;;;;;5030514;28;20022;-76
2022/04/23 05:29:52;;;;;;;22.63;13.10;;;;;;;;;;5032186;28;20477;-75
2022/04/23 05:32:18;;;;;;;21.57;12.50;;;;;;;;;;5030611;28;20036;-75
2022/04/23 05:34:43;;;;;;;21.90;12.80;;;;;;;;;;5039675;28;20025;-75
2022/04/23 05:37:09;;;;;;;20.60;12.13;;;;;;;;;;5051640;28;20365;-75
2022/04/23 05:39:35;;;;;;;20.93;12.40;;;;;;;;;;5052354;28;20479;-75
2022/04/23 05:42:01;;;;;;;19.90;12.23;;;;;;;;;;5051966;28;20032;-75
2022/04/23 05:44:26;;;;;;;24.30;13.30;;;;;;;;;;5049930;28;20105;-76
2022/04/23 05:46:52;;;;;;;26.53;14.33;;;;;;;;;;5050008;28;20365;-76
2022/04/23 05:49:18;;;;;;;23.97;12.93;;;;;;;;;;5049606;28;20034;-77
2022/04/23 05:51:43;;;;;;;22.87;13.43;;;;;;;;;;5050509;28;20381;-75
2022/04/23 05:54:09;;;;;;;20.43;11.77;;;;;;;;;;5049944;28;20025;-75
2022/04/23 05:56:34;;;;;;;23.27;12.97;;;;;;;;;;5050225;28;20025;-76
2022/04/23 05:59:00;;;;;;;19.90;12.90;;;;;;;;;;5051682;28;20028;-74
2022/04/23 06:01:26;;;;;;;20.70;11.90;;;;;;;;;;5051379;28;20460;-74
2022/04/23 06:03:52;;;;;;;21.70;12.37;;;;;;;;;;5051686;28;20032;-75
2022/04/23 06:06:19;;;;;;;20.17;11.77;;;;;;;;;;5051183;28;20025;-76
2022/04/23 06:08:44;;;;;;;23.47;13.50;;;;;;;;;;5069429;28;20025;-75
2022/04/23 06:11:10;;;;;;;20.30;13.53;;;;;;;;;;5051012;28;20045;-76
2022/04/23 06:13:35;;;;;;;18.73;12.03;;;;;;;;;;5066407;28;20029;-75
2022/04/23 06:16:00;;;;;;;22.40;12.50;;;;;;;;;;5066084;28;20496;-76
2022/04/23 06:18:26;;;;;;;19.47;13.40;;;;;;;;;;5066260;28;20028;-75
2022/04/23 06:20:52;;;;;;;21.13;12.27;;;;;;;;;;5050767;28;20413;-77
2022/04/23 06:23:18;;;;;;;20.70;12.07;;;;;;;;;;5066270;28;20428;-75
2022/04/23 06:25:44;;;;;;;20.20;12.13;;;;;;;;;;5066047;28;20020;-75
2022/04/23 06:28:10;;;;;;;19.33;12.37;;;;;;;;;;5066030;28;20047;-75
2022/04/23 06:30:39;;;;;;;20.97;11.80;;;;;;;;;;5066468;28;20082;-75
2022/04/23 06:33:05;;;;;;;17.83;12.10;;;;;;;;;;5066635;28;20028;-76
2022/04/23 06:35:31;;;;;;;18.90;11.60;;;;;;;;;;5050588;28;20037;-76
2022/04/23 06:37:57;;;;;;;20.57;12.00;;;;;;;;;;5051887;28;20043;-77
2022/04/23 06:40:24;;;;;;;25.03;12.43;;;;;;;;;;5053815;28;20037;-75
2022/04/23 06:42:50;;;;;;;23.00;11.87;;;;;;;;;;5051838;28;20401;-76
2022/04/23 06:45:15;;;;;;;20.27;11.97;;;;;;;;;;5049302;28;20017;-76
2022/04/23 06:47:41;;;;;;;22.70;11.83;;;;;;;;;;5049633;28;20025;-76
2022/04/23 06:50:07;;;;;;;23.50;11.97;;;;;;;;;;5050391;28;20024;-76
2022/04/23 06:52:33;;;;;;;18.63;11.80;;;;;;;;;;5065956;28;20111;-77
2022/04/23 06:54:59;;;;;;;24.47;11.87;;;;;;;;;;5065602;28;20028;-76
2022/04/23 06:57:25;;;;;;;19.07;11.57;;;;;;;;;;5050412;28;20037;-75
2022/04/23 06:59:53;;;;;;;18.67;10.80;;;;;;;;;;5050366;28;20028;-77
2022/04/23 07:02:19;;;;;;;24.80;11.77;;;;;;;;;;5065481;28;20029;-76
2022/04/23 07:04:45;;;;;;;20.47;11.77;;;;;;;;;;5050185;28;20028;-76
2022/04/23 07:07:11;;;;;;;20.83;12.53;;;;;;;;;;5050116;28;20108;-73
2022/04/23 07:09:37;;;;;;;21.43;11.23;;;;;;;;;;5050241;28;20098;-76
2022/04/23 07:12:05;;;;;;;24.77;11.03;;;;;;;;;;5048456;28;20243;-76
2022/04/23 07:14:32;;;;;;;17.50;10.93;;;;;;;;;;5049799;28;20040;-77
2022/04/23 07:16:58;;;;;;;18.80;11.57;;;;;;;;;;5048490;28;20396;-75
2022/04/23 07:19:24;;;;;;;17.33;11.47;;;;;;;;;;5050014;28;20029;-77
2022/04/23 07:21:49;;;;;;;22.13;10.50;;;;;;;;;;5048306;28;20116;-74
2022/04/23 07:24:16;;;;;;;23.43;11.47;;;;;;;;;;5064602;28;20017;-74
2022/04/23 07:26:42;;;;;;;17.67;11.07;;;;;;;;;;5065186;28;20029;-74
2022/04/23 07:29:10;;;;;;;17.83;11.03;;;;;;;;;;5064981;28;20044;-74
2022/04/23 07:31:37;;;;;;;14.40;10.07;;;;;;;;;;5049626;28;20040;-75
2022/04/23 07:39:34;;;;;;;15.17;10.47;;;;;;;;;;5029504;28;20126;-74
2022/04/23 07:41:59;;;;;;;16.90;11.07;;;;;;;;;;5029419;28;20389;-74
2022/04/23 07:44:28;;;;;;;16.83;10.67;;;;;;;;;;5029424;28;20037;-74
2022/04/23 07:46:53;;;;;;;14.40;9.40;;;;;;;;;;5029684;28;20036;-74
2022/04/23 07:49:19;;;;;;;15.33;10.60;;;;;;;;;;5044305;28;20163;-75
2022/04/23 07:51:47;;;;;;;20.13;10.67;;;;;;;;;;5058250;28;20029;-75
2022/04/23 07:54:14;;;;;;;17.60;11.33;;;;;;;;;;5049455;28;20045;-75
2022/04/23 07:56:41;;;;;;;16.43;10.47;;;;;;;;;;5049265;28;20483;-75
2022/04/23 07:59:07;;;;;;;15.87;10.37;;;;;;;;;;5050193;28;20115;-76
2022/04/23 08:01:33;;;;;;;15.18;10.23;;;;;;;;;;5049391;28;20433;-74
2022/04/23 08:04:02;;;;;;;17.97;10.17;;;;;;;;;;5047970;28;20532;-74
2022/04/23 08:06:27;;;;;;;15.52;9.73;;;;;;;;;;5038817;28;20144;-74
2022/04/23 08:08:53;;;;;;;15.18;9.90;;;;;;;;;;5027562;28;20477;-76
2022/04/23 08:11:19;;;;;;;16.05;10.45;;;;;;;;;;5043698;28;20139;-76
2022/04/23 08:13:45;;;;;;;13.40;8.95;;;;;;;;;;5044246;28;20040;-75
2022/04/23 08:16:10;;;;;;;13.85;8.90;;;;;;;;;;5011468;28;20037;-74
2022/04/23 08:18:36;;;;;;;13.55;8.95;;;;;;;;;;5029055;28;20825;-74
2022/04/23 08:21:02;;;;;;;15.63;9.70;;;;;;;;;;5044078;28;20128;-75
2022/04/23 08:23:33;;;;;;;12.23;8.32;;;;;;;;;;5028757;28;20060;-74
2022/04/23 08:26:02;;;;;;;14.15;9.25;;;;;;;;;;5028901;28;20321;-74
2022/04/23 08:31:12;;;;;;;13.30;8.82;;;;;;;;;;5029244;28;20056;-75
2022/04/23 08:36:22;;;;;;;13.18;8.82;;;;;;;;;;5034642;28;20100;-75
2022/04/23 08:38:51;;;;;;;11.63;9.00;;;;;;;;;;5050155;28;20048;-76
2022/04/23 08:41:17;;;;;;;11.93;7.97;;;;;;;;;;5050744;28;20031;-74
2022/04/23 08:43:42;;;;;;;11.07;8.13;;;;;;;;;;5065724;28;20144;-75
2022/04/23 08:46:08;;;;;;;14.15;9.18;;;;;;;;;;5065804;28;20075;-74
2022/04/23 08:48:38;;;;;;;15.13;9.48;;;;;;;;;;5065059;28;20032;-74
2022/04/23 08:51:11;;;;;;;14.38;8.18;;;;;;;;;;5067927;28;20032;-74
2022/04/23 08:53:40;;;;;;;16.80;8.27;;;;;;;;;;5068003;28;20103;-74
2022/04/23 08:56:08;;;;;;;13.93;8.32;;;;;;;;;;5035179;28;20029;-76
2022/04/23 08:58:34;;;;;;;11.07;8.57;;;;;;;;;;5069116;28;20021;-77
2022/04/23 09:01:00;;;;;;;11.13;7.85;;;;;;;;;;5053088;28;20025;-77
2022/04/23 09:03:25;;;;;;;12.82;8.00;;;;;;;;;;5052191;28;20051;-75
2022/04/23 09:05:52;;;;;;;12.48;8.43;;;;;;;;;;5068682;28;20036;-75
2022/04/23 09:08:18;;;;;;;11.73;8.15;;;;;;;;;;5068791;28;20045;-75
2022/04/23 09:10:51;;;;;;;11.95;8.07;;;;;;;;;;5053971;28;20134;-76
2022/04/23 09:13:32;;;;;;;11.45;8.05;;;;;;;;;;5052519;28;20025;-75
2022/04/23 09:24:51;;;;;;;11.13;7.22;;;;;;;;;;5053781;28;20405;-74
2022/04/23 09:27:16;;;;;;;10.50;6.60;;;;;;;;;;5052874;28;20481;-75
2022/04/23 09:30:03;;;;;;;10.75;6.90;;;;;;;;;;5053867;28;20120;-76
2022/04/23 09:32:29;;;;;;;13.30;7.90;;;;;;;;;;5053689;28;20081;-75
2022/04/23 09:35:05;;;;;;;9.02;6.22;;;;;;;;;;5053470;28;20025;-76
2022/04/23 09:40:23;;;;;;;11.77;6.68;;;;;;;;;;5032298;28;20098;-73
2022/04/23 09:43:09;;;;;;;8.73;5.65;;;;;;;;;;5032516;28;20424;-75
2022/04/23 09:45:41;;;;;;;8.23;6.00;;;;;;;;;;5031025;28;20026;-75
2022/04/23 09:48:18;;;;;;;9.40;6.25;;;;;;;;;;5032162;28;20429;-74
2022/04/23 09:50:49;;;;;;;8.45;6.10;;;;;;;;;;5030671;28;20110;-74
2022/04/23 09:53:19;;;;;;;7.80;5.28;;;;;;;;;;5044926;28;20435;-75
2022/04/23 09:55:47;;;;;;;7.77;4.93;;;;;;;;;;5050526;28;20048;-74
2022/04/23 09:58:14;;;;;;;6.25;4.80;;;;;;;;;;5033975;28;20029;-76
2022/04/23 10:00:41;;;;;;;9.30;5.47;;;;;;;;;;5048888;28;20029;-75
2022/04/23 10:03:08;;;;;;;6.60;4.53;;;;;;;;;;5050165;28;20575;-75
2022/04/23 10:05:55;;;;;;;7.72;5.18;;;;;;;;;;5050156;28;20033;-74
2022/04/23 10:08:26;;;;;;;9.20;5.28;;;;;;;;;;5034988;28;20041;-74
2022/04/23 10:11:09;;;;;;;9.00;4.88;;;;;;;;;;5046695;28;20060;-74
2022/04/23 10:13:40;;;;;;;9.93;6.07;;;;;;;;;;5031322;28;20497;-75
2022/04/23 10:16:07;;;;;;;7.05;5.13;;;;;;;;;;5029997;28;20030;-75
2022/04/23 10:18:38;;;;;;;7.55;5.15;;;;;;;;;;5031307;28;20108;-74
2022/04/23 10:21:08;;;;;;;7.05;4.88;;;;;;;;;;5046802;28;20091;-75
2022/04/23 10:24:09;;;;;;;8.07;5.68;;;;;;;;;;5045838;28;20401;-75
2022/04/23 10:26:47;;;;;;;10.02;5.70;;;;;;;;;;5030426;28;20035;-74
2022/04/23 10:29:23;;;;;;;15.20;8.40;;;;;;;;;;5031576;28;20120;-76
2022/04/23 10:32:35;;;;;;;9.02;6.18;;;;;;;;;;5030065;28;20026;-75
2022/04/23 10:35:02;;;;;;;10.45;7.10;;;;;;;;;;5008569;28;20351;-75
2022/04/23 10:37:28;;;;;;;8.13;6.35;;;;;;;;;;4995887;28;20332;-75
2022/04/23 10:39:54;;;;;;;9.15;5.32;;;;;;;;;;5040237;28;20071;-74
2022/04/23 10:42:21;;;;;;;9.93;6.10;;;;;;;;;;5049811;28;20044;-76
2022/04/23 10:44:48;;;;;;;8.57;6.03;;;;;;;;;;5051271;28;20066;-75
2022/04/23 10:47:30;;;;;;;11.15;5.95;;;;;;;;;;5049434;28;20481;-75
2022/04/23 10:52:43;;;;;;;7.97;6.00;;;;;;;;;;5050587;28;20041;-74
2022/04/23 10:55:10;;;;;;;7.85;6.18;;;;;;;;;;5050511;28;20064;-74
2022/04/23 10:57:38;;;;;;;11.75;5.90;;;;;;;;;;5032692;28;20025;-74
2022/04/23 11:00:12;;;;;;;8.85;5.57;;;;;;;;;;5049188;28;20087;-74
2022/04/23 11:02:39;;;;;;;6.97;5.63;;;;;;;;;;5048967;28;20025;-75
2022/04/23 11:13:39;;;;;;;6.28;4.72;;;;;;;;;;5050316;28;20052;-75
2022/04/23 11:16:17;;;;;;;10.80;5.22;;;;;;;;;;5065434;28;20028;-74
2022/04/23 11:18:45;;;;;;;9.80;6.10;;;;;;;;;;5048805;28;20163;-74
2022/04/23 11:21:16;;;;;;;9.18;5.40;;;;;;;;;;5057349;28;20389;-73
2022/04/23 11:23:47;;;;;;;7.30;5.25;;;;;;;;;;5038965;28;20032;-75
2022/04/23 11:26:18;;;;;;;7.97;5.95;;;;;;;;;;5050306;28;20059;-75
2022/04/23 11:28:45;;;;;;;8.20;5.28;;;;;;;;;;5048539;28;20039;-74
2022/04/23 11:31:12;;;;;;;7.35;5.20;;;;;;;;;;5050277;28;20021;-75
2022/04/23 11:33:49;;;;;;;8.95;4.93;;;;;;;;;;5048017;28;20027;-75
2022/04/23 11:36:15;;;;;;;7.55;5.45;;;;;;;;;;5049695;28;20032;-75
2022/04/23 11:38:44;;;;;;;8.27;5.45;;;;;;;;;;5040259;28;20069;-75
2022/04/23 11:41:10;;;;;;;5.53;4.82;;;;;;;;;;5028217;28;20025;-75
2022/04/23 11:43:39;;;;;;;8.20;5.47;;;;;;;;;;5029576;28;20544;-75
2022/04/23 11:46:08;;;;;;;8.93;6.00;;;;;;;;;;5028020;28;20029;-75
2022/04/23 11:48:48;;;;;;;7.40;5.05;;;;;;;;;;5023468;28;20040;-75
2022/04/23 11:51:21;;;;;;;6.70;4.40;;;;;;;;;;5028709;28;20021;-75
2022/04/23 11:54:00;;;;;;;16.52;8.25;;;;;;;;;;5027948;28;20514;-76
2022/04/23 11:56:30;;;;;;;4.47;3.20;;;;;;;;;;5028344;28;20141;-74
2022/04/23 11:58:59;;;;;;;8.43;3.83;;;;;;;;;;5044747;28;20524;-75
2022/04/23 12:01:25;;;;;;;5.40;4.15;;;;;;;;;;5029269;28;20033;-75
2022/04/23 12:03:57;;;;;;;5.80;3.70;;;;;;;;;;5029332;28;20025;-75
2022/04/23 12:06:24;;;;;;;11.50;3.70;;;;;;;;;;5045040;28;20394;-77
2022/04/23 12:08:50;;;;;;;4.88;3.55;;;;;;;;;;5028325;28;20081;-75
2022/04/23 12:11:24;;;;;;;4.28;3.58;;;;;;;;;;5029030;28;20057;-76
2022/04/23 12:13:50;;;;;;;6.38;4.13;;;;;;;;;;5027849;28;20048;-75
2022/04/23 12:16:37;;;;;;;6.60;4.78;;;;;;;;;;5029711;28;20037;-75
2022/04/23 12:19:07;;;;;;;5.28;3.83;;;;;;;;;;5027961;28;20114;-75
2022/04/23 12:21:35;;;;;;;5.25;4.00;;;;;;;;;;5038781;28;20299;-75
2022/04/23 12:24:01;;;;;;;7.22;4.95;;;;;;;;;;5046765;28;20040;-74
2022/04/23 12:26:32;;;;;;;6.82;4.13;;;;;;;;;;5047564;28;20118;-74
2022/04/23 12:42:44;;;;;;;6.60;4.20;;;;;;;;;;5028863;28;20452;-74
2022/04/23 12:45:19;;;;;;;6.82;3.58;;;;;;;;;;5027184;28;20108;-74
2022/04/23 12:47:45;;;;;;;6.10;3.53;;;;;;;;;;5010778;28;20034;-75
2022/04/23 12:50:11;;;;;;;6.93;4.20;;;;;;;;;;5027200;28;20540;-75
2022/04/23 12:52:45;;;;;;;7.70;3.90;;;;;;;;;;5027560;28;20041;-75
2022/04/23 12:55:37;;;;;;;7.70;4.70;;;;;;;;;;5041768;28;20029;-74
2022/04/23 12:58:02;;;;;;;5.70;4.18;;;;;;;;;;5047717;28;20409;-74
2022/04/23 13:00:37;;;;;;;6.30;3.78;;;;;;;;;;5049054;28;20127;-75
2022/04/23 13:03:37;;;;;;;4.90;3.67;;;;;;;;;;5048670;28;20021;-75
2022/04/23 13:08:54;;;;;;;5.80;4.03;;;;;;;;;;5047229;28;20044;-74
2022/04/23 13:08:54;;;;;;;5.28;4.28;;;;;;;;;;5048231;28;20033;-74
2022/04/23 13:11:27;;;;;;;6.20;4.85;;;;;;;;;;5046993;28;20037;-75
2022/04/23 13:14:01;;;;;;;6.57;4.03;;;;;;;;;;5047157;28;20397;-77
2022/04/23 13:16:31;;;;;;;5.55;4.00;;;;;;;;;;5047345;28;20059;-77
2022/04/23 13:18:59;;;;;;;5.78;3.60;;;;;;;;;;5048491;28;20076;-77
2022/04/23 13:21:33;;;;;;;5.43;3.88;;;;;;;;;;5048926;28;20570;-77
2022/04/23 13:24:00;;;;;;;6.93;3.50;;;;;;;;;;5048299;28;20044;-77
2022/04/23 13:26:31;;;;;;;5.40;4.40;;;;;;;;;;5048246;28;20098;-77
2022/04/23 13:28:58;;;;;;;3.58;3.10;;;;;;;;;;5032340;28;20036;-77
2022/04/23 13:31:23;;;;;;;12.93;3.80;;;;;;;;;;5049270;28;20060;-77
2022/04/23 13:33:50;;;;;;;4.28;3.60;;;;;;;;;;5048676;28;20081;-77
2022/04/23 13:36:17;;;;;;;3.95;3.35;;;;;;;;;;5051864;28;20025;-77
2022/04/23 13:38:42;;;;;;;4.30;3.63;;;;;;;;;;5054435;28;20016;-77
2022/04/23 13:41:12;;;;;;;4.10;3.25;;;;;;;;;;5060328;28;20017;-77
2022/04/23 13:43:39;;;;;;;4.78;2.97;;;;;;;;;;5067340;28;20415;-75
2022/04/23 13:46:04;;;;;;;5.43;3.25;;;;;;;;;;5063715;28;20021;-77
2022/04/23 13:48:31;;;;;;;3.75;3.35;;;;;;;;;;5052599;28;20132;-77
2022/04/23 13:50:57;;;;;;;6.95;3.63;;;;;;;;;;5051536;28;20048;-77
2022/04/23 13:53:22;;;;;;;3.97;2.88;;;;;;;;;;5052693;28;20174;-77
2022/04/23 13:55:48;;;;;;;4.00;2.65;;;;;;;;;;5052312;28;20487;-76
2022/04/23 13:58:13;;;;;;;4.95;3.22;;;;;;;;;;5051447;28;20472;-75
2022/04/23 14:00:39;;;;;;;21.17;5.45;;;;;;;;;;5052809;28;20425;-78
2022/04/23 14:11:18;;;;;;;4.15;2.25;;;;;;;;;;5036103;28;20434;-77
2022/04/23 14:13:43;;;;;;;3.30;2.70;;;;;;;;;;5040868;28;20052;-78
2022/04/23 14:16:13;;;;;;;2.63;2.42;;;;;;;;;;5049722;28;20067;-76
2022/04/23 14:18:39;;;;;;;4.78;2.67;;;;;;;;;;5049921;28;20131;-79
2022/04/23 14:21:04;;;;;;;4.63;2.67;;;;;;;;;;5044481;28;20026;-78
2022/04/23 14:23:31;;;;;;;3.22;2.75;;;;;;;;;;5049791;28;20276;-77
2022/04/23 14:25:57;;;;;;;2.40;2.20;;;;;;;;;;5049412;28;20068;-77
2022/04/23 14:28:22;;;;;;;2.25;2.05;;;;;;;;;;5031294;28;20025;-77
2022/04/23 14:30:50;;;;;;;3.55;2.53;;;;;;;;;;5030081;28;20110;-77
2022/04/23 14:33:16;;;;;;;3.50;2.05;;;;;;;;;;5030137;28;20393;-78
2022/04/23 14:35:43;;;;;;;2.63;2.42;;;;;;;;;;5031308;28;20041;-78
2022/04/23 14:38:10;;;;;;;4.97;2.50;;;;;;;;;;5031862;28;20026;-79
2022/04/23 14:40:37;;;;;;;2.38;2.17;;;;;;;;;;5038164;28;20134;-78
2022/04/23 14:43:02;;;;;;;3.00;2.22;;;;;;;;;;5052247;28;20025;-77
2022/04/23 14:45:31;;;;;;;2.33;2.13;;;;;;;;;;5051602;28;20093;-77
2022/04/23 14:47:57;;;;;;;5.68;2.70;;;;;;;;;;5049071;28;20032;-78
2022/04/23 14:50:23;;;;;;;3.85;2.58;;;;;;;;;;5051003;28;20040;-78
2022/04/23 14:55:33;;;;;;;2.60;2.40;;;;;;;;;;5050653;28;20024;-78
2022/04/23 14:57:59;;;;;;;3.25;2.78;;;;;;;;;;5050787;28;20555;-77
2022/04/23 15:00:24;;;;;;;3.30;2.17;;;;;;;;;;5066708;28;20087;-80
2022/04/23 15:02:54;;;;;;;3.72;2.47;;;;;;;;;;5051035;28;20110;-79
2022/04/23 15:05:22;;;;;;;3.33;2.40;;;;;;;;;;5066286;28;20465;-78
2022/04/23 15:07:49;;;;;;;2.65;2.35;;;;;;;;;;5066275;28;20116;-78
2022/04/23 15:10:15;;;;;;;4.28;2.38;;;;;;;;;;5050530;28;20029;-77
2022/04/23 15:12:41;;;;;;;4.85;2.10;;;;;;;;;;5050505;28;20111;-77
2022/04/23 15:15:07;;;;;;;2.78;2.55;;;;;;;;;;5032926;28;20051;-77
2022/04/23 15:17:34;;;;;;;2.95;2.47;;;;;;;;;;5050537;28;20047;-78
2022/04/23 15:19:59;;;;;;;2.28;1.95;;;;;;;;;;5049445;28;20292;-78
2022/04/23 15:22:25;;;;;;;2.97;2.33;;;;;;;;;;5049561;28;20528;-77
2022/04/23 15:24:54;;;;;;;5.38;2.97;;;;;;;;;;5065646;28;20035;-77
2022/04/23 15:27:19;;;;;;;4.03;2.95;;;;;;;;;;5032866;28;20504;-77
2022/04/23 15:29:47;;;;;;;3.10;2.67;;;;;;;;;;5033496;28;20022;-78
2022/04/23 15:32:13;;;;;;;2.83;2.30;;;;;;;;;;5048306;28;20029;-77
2022/04/23 15:34:42;;;;;;;3.25;2.70;;;;;;;;;;5032079;28;20453;-78